sensor_id;sensor_type;location;lat;lon;timestamp;P1;durP1;ratioP1;P2;durP2;ratioP2
52294;SDS011;38243;53.212;6.574;2023-02-13T00:00:12;3.83;;;1.70;;
52294;SDS011;38243;53.212;6.574;2023-02-13T00:02:40;3.50;;;1.70;;
52294;SDS011;38243;53.212;6.574;2023-02-13T00:05:06;2.17;;;1.95;;
52294;SDS011;38243;53.212;6.574;2023-02-13T00:07:32;1.55;;;1.45;;
52294;SDS011;38243;53.212;6.574;2023-02-13T00:09:57;2.37;;;1.60;;
52294;SDS011;38243;53.212;6.574;2023-02-13T00:12:23;1.92;;;1.77;;
52294;SDS011;38243;53.212;6.574;2023-02-13T00:14:49;2.97;;;1.90;;
52294;SDS011;38243;53.212;6.574;2023-02-13T00:17:14;2.50;;;2.30;;
52294;SDS011;38243;53.212;6.574;2023-02-13T00:19:40;2.00;;;1.70;;
52294;SDS011;38243;53.212;6.574;2023-02-13T00:22:06;2.15;;;1.92;;
52294;SDS011;38243;53.212;6.574;2023-02-13T00:24:32;2.05;;;1.70;;
52294;SDS011;38243;53.212;6.574;2023-02-13T00:26:57;2.20;;;1.60;;
52294;SDS011;38243;53.212;6.574;2023-02-13T00:29:23;2.53;;;2.03;;
52294;SDS011;38243;53.212;6.574;2023-02-13T00:31:49;4.00;;;2.20;;
52294;SDS011;38243;53.212;6.574;2023-02-13T00:34:14;2.40;;;2.20;;
52294;SDS011;38243;53.212;6.574;2023-02-13T00:36:40;2.43;;;2.23;;
52294;SDS011;38243;53.212;6.574;2023-02-13T00:39:06;4.63;;;1.70;;
52294;SDS011;38243;53.212;6.574;2023-02-13T00:41:35;2.33;;;1.63;;
52294;SDS011;38243;53.212;6.574;2023-02-13T00:44:00;1.85;;;1.75;;
52294;SDS011;38243;53.212;6.574;2023-02-13T00:46:26;2.40;;;1.80;;
52294;SDS011;38243;53.212;6.574;2023-02-13T00:48:52;2.65;;;1.98;;
52294;SDS011;38243;53.212;6.574;2023-02-13T00:51:17;2.53;;;2.00;;
52294;SDS011;38243;53.212;6.574;2023-02-13T00:53:43;2.53;;;2.33;;
52294;SDS011;38243;53.212;6.574;2023-02-13T00:56:09;2.60;;;1.67;;
52294;SDS011;38243;53.212;6.574;2023-02-13T00:58:35;2.37;;;2.17;;
52294;SDS011;38243;53.212;6.574;2023-02-13T01:01:01;2.13;;;1.92;;
52294;SDS011;38243;53.212;6.574;2023-02-13T01:03:26;2.53;;;2.20;;
52294;SDS011;38243;53.212;6.574;2023-02-13T01:05:52;3.27;;;1.90;;
52294;SDS011;38243;53.212;6.574;2023-02-13T01:08:19;1.92;;;1.65;;
52294;SDS011;38243;53.212;6.574;2023-02-13T01:10:46;2.95;;;2.08;;
52294;SDS011;38243;53.212;6.574;2023-02-13T01:13:13;2.35;;;1.92;;
52294;SDS011;38243;53.212;6.574;2023-02-13T01:15:40;2.37;;;1.90;;
52294;SDS011;38243;53.212;6.574;2023-02-13T01:18:06;1.58;;;1.48;;
52294;SDS011;38243;53.212;6.574;2023-02-13T01:20:32;1.88;;;1.70;;
52294;SDS011;38243;53.212;6.574;2023-02-13T01:22:58;1.77;;;1.55;;
52294;SDS011;38243;53.212;6.574;2023-02-13T01:25:23;2.37;;;2.17;;
52294;SDS011;38243;53.212;6.574;2023-02-13T01:27:49;2.60;;;2.10;;
52294;SDS011;38243;53.212;6.574;2023-02-13T01:30:15;2.78;;;2.13;;
52294;SDS011;38243;53.212;6.574;2023-02-13T01:32:43;1.98;;;1.77;;
52294;SDS011;38243;53.212;6.574;2023-02-13T01:35:09;2.83;;;1.95;;
52294;SDS011;38243;53.212;6.574;2023-02-13T01:37:36;2.42;;;1.95;;
52294;SDS011;38243;53.212;6.574;2023-02-13T01:40:03;2.05;;;1.85;;
52294;SDS011;38243;53.212;6.574;2023-02-13T01:42:31;2.40;;;1.88;;
52294;SDS011;38243;53.212;6.574;2023-02-13T01:45:05;3.70;;;2.23;;
52294;SDS011;38243;53.212;6.574;2023-02-13T01:47:45;2.43;;;2.23;;
52294;SDS011;38243;53.212;6.574;2023-02-13T01:52:55;2.40;;;2.20;;
52294;SDS011;38243;53.212;6.574;2023-02-13T01:55:24;3.00;;;2.20;;
52294;SDS011;38243;53.212;6.574;2023-02-13T01:57:52;2.60;;;2.40;;
52294;SDS011;38243;53.212;6.574;2023-02-13T02:00:22;3.17;;;2.35;;
52294;SDS011;38243;53.212;6.574;2023-02-13T02:03:01;3.53;;;2.30;;
52294;SDS011;38243;53.212;6.574;2023-02-13T02:05:34;2.47;;;2.28;;
52294;SDS011;38243;53.212;6.574;2023-02-13T02:08:01;3.45;;;1.85;;
52294;SDS011;38243;53.212;6.574;2023-02-13T02:10:32;2.45;;;2.00;;
52294;SDS011;38243;53.212;6.574;2023-02-13T02:13:06;2.22;;;1.90;;
52294;SDS011;38243;53.212;6.574;2023-02-13T02:15:35;2.55;;;1.65;;
52294;SDS011;38243;53.212;6.574;2023-02-13T02:18:01;3.08;;;2.15;;
52294;SDS011;38243;53.212;6.574;2023-02-13T02:23:34;2.50;;;1.90;;
52294;SDS011;38243;53.212;6.574;2023-02-13T02:29:12;3.45;;;2.47;;
52294;SDS011;38243;53.212;6.574;2023-02-13T02:35:04;2.30;;;2.00;;
52294;SDS011;38243;53.212;6.574;2023-02-13T02:40:11;2.55;;;2.00;;
52294;SDS011;38243;53.212;6.574;2023-02-13T02:45:58;2.83;;;2.05;;
52294;SDS011;38243;53.212;6.574;2023-02-13T02:48:32;2.42;;;1.95;;
52294;SDS011;38243;53.212;6.574;2023-02-13T02:51:46;1.90;;;1.65;;
52294;SDS011;38243;53.212;6.574;2023-02-13T02:54:30;3.08;;;2.30;;
52294;SDS011;38243;53.212;6.574;2023-02-13T02:57:26;2.72;;;2.17;;
52294;SDS011;38243;53.212;6.574;2023-02-13T03:00:16;2.77;;;2.43;;
52294;SDS011;38243;53.212;6.574;2023-02-13T03:03:04;2.60;;;2.10;;
52294;SDS011;38243;53.212;6.574;2023-02-13T03:05:52;2.67;;;2.47;;
52294;SDS011;38243;53.212;6.574;2023-02-13T03:08:34;2.58;;;2.15;;
52294;SDS011;38243;53.212;6.574;2023-02-13T03:11:20;2.97;;;2.25;;
52294;SDS011;38243;53.212;6.574;2023-02-13T03:14:04;3.28;;;2.25;;
52294;SDS011;38243;53.212;6.574;2023-02-13T03:16:33;2.85;;;2.55;;
52294;SDS011;38243;53.212;6.574;2023-02-13T03:19:22;3.33;;;2.72;;
52294;SDS011;38243;53.212;6.574;2023-02-13T03:27:23;3.08;;;1.92;;
52294;SDS011;38243;53.212;6.574;2023-02-13T03:35:55;2.20;;;2.00;;
52294;SDS011;38243;53.212;6.574;2023-02-13T03:39:04;2.05;;;1.85;;
52294;SDS011;38243;53.212;6.574;2023-02-13T03:44:10;3.00;;;2.45;;
52294;SDS011;38243;53.212;6.574;2023-02-13T03:46:37;2.75;;;2.10;;
52294;SDS011;38243;53.212;6.574;2023-02-13T03:49:06;3.20;;;2.47;;
52294;SDS011;38243;53.212;6.574;2023-02-13T03:52:00;2.83;;;2.33;;
52294;SDS011;38243;53.212;6.574;2023-02-13T03:57:28;3.10;;;2.25;;
52294;SDS011;38243;53.212;6.574;2023-02-13T04:00:17;2.83;;;2.30;;
52294;SDS011;38243;53.212;6.574;2023-02-13T04:02:53;2.47;;;2.27;;
52294;SDS011;38243;53.212;6.574;2023-02-13T04:05:24;3.08;;;2.30;;
52294;SDS011;38243;53.212;6.574;2023-02-13T04:07:53;2.55;;;2.17;;
52294;SDS011;38243;53.212;6.574;2023-02-13T04:10:19;2.72;;;2.53;;
52294;SDS011;38243;53.212;6.574;2023-02-13T04:15:26;2.58;;;2.35;;
52294;SDS011;38243;53.212;6.574;2023-02-13T04:20:34;3.70;;;2.08;;
52294;SDS011;38243;53.212;6.574;2023-02-13T04:23:05;2.97;;;2.35;;
52294;SDS011;38243;53.212;6.574;2023-02-13T04:25:32;3.03;;;2.30;;
52294;SDS011;38243;53.212;6.574;2023-02-13T04:28:00;3.27;;;2.57;;
52294;SDS011;38243;53.212;6.574;2023-02-13T04:30:26;2.70;;;2.50;;
52294;SDS011;38243;53.212;6.574;2023-02-13T04:32:51;2.47;;;2.28;;
52294;SDS011;38243;53.212;6.574;2023-02-13T04:35:17;3.30;;;3.00;;
52294;SDS011;38243;53.212;6.574;2023-02-13T04:37:43;2.83;;;2.53;;
52294;SDS011;38243;53.212;6.574;2023-02-13T04:40:09;3.37;;;2.87;;
52294;SDS011;38243;53.212;6.574;2023-02-13T04:42:35;3.45;;;3.05;;
52294;SDS011;38243;53.212;6.574;2023-02-13T04:45:01;3.38;;;3.08;;
52294;SDS011;38243;53.212;6.574;2023-02-13T04:47:26;4.00;;;3.53;;
52294;SDS011;38243;53.212;6.574;2023-02-13T04:49:52;3.40;;;3.10;;
52294;SDS011;38243;53.212;6.574;2023-02-13T04:52:18;3.40;;;3.10;;
52294;SDS011;38243;53.212;6.574;2023-02-13T04:54:43;3.77;;;3.20;;
52294;SDS011;38243;53.212;6.574;2023-02-13T04:57:09;3.60;;;3.08;;
52294;SDS011;38243;53.212;6.574;2023-02-13T04:59:35;3.80;;;2.90;;
52294;SDS011;38243;53.212;6.574;2023-02-13T05:02:00;3.33;;;3.00;;
52294;SDS011;38243;53.212;6.574;2023-02-13T05:04:26;4.93;;;2.80;;
52294;SDS011;38243;53.212;6.574;2023-02-13T05:06:53;4.22;;;2.90;;
52294;SDS011;38243;53.212;6.574;2023-02-13T05:09:18;3.20;;;2.87;;
52294;SDS011;38243;53.212;6.574;2023-02-13T05:11:44;4.13;;;2.60;;
52294;SDS011;38243;53.212;6.574;2023-02-13T05:14:10;2.65;;;2.45;;
52294;SDS011;38243;53.212;6.574;2023-02-13T05:16:35;3.13;;;2.23;;
52294;SDS011;38243;53.212;6.574;2023-02-13T05:19:02;3.22;;;2.92;;
52294;SDS011;38243;53.212;6.574;2023-02-13T05:21:27;3.50;;;2.53;;
52294;SDS011;38243;53.212;6.574;2023-02-13T05:24:11;3.97;;;2.33;;
52294;SDS011;38243;53.212;6.574;2023-02-13T05:26:37;3.17;;;2.83;;
52294;SDS011;38243;53.212;6.574;2023-02-13T05:29:03;3.70;;;2.90;;
52294;SDS011;38243;53.212;6.574;2023-02-13T05:31:50;3.17;;;2.63;;
52294;SDS011;38243;53.212;6.574;2023-02-13T05:34:18;3.88;;;3.47;;
52294;SDS011;38243;53.212;6.574;2023-02-13T05:36:45;3.27;;;2.70;;
52294;SDS011;38243;53.212;6.574;2023-02-13T05:39:11;3.63;;;3.33;;
52294;SDS011;38243;53.212;6.574;2023-02-13T05:41:37;3.22;;;2.72;;
52294;SDS011;38243;53.212;6.574;2023-02-13T05:44:03;4.80;;;3.22;;
52294;SDS011;38243;53.212;6.574;2023-02-13T05:46:29;4.47;;;3.60;;
52294;SDS011;38243;53.212;6.574;2023-02-13T05:48:55;3.80;;;3.10;;
52294;SDS011;38243;53.212;6.574;2023-02-13T05:51:21;4.20;;;3.80;;
52294;SDS011;38243;53.212;6.574;2023-02-13T05:53:46;5.32;;;3.88;;
52294;SDS011;38243;53.212;6.574;2023-02-13T05:56:12;3.00;;;2.50;;
52294;SDS011;38243;53.212;6.574;2023-02-13T05:58:38;2.92;;;2.63;;
52294;SDS011;38243;53.212;6.574;2023-02-13T06:01:04;5.13;;;3.07;;
52294;SDS011;38243;53.212;6.574;2023-02-13T06:03:30;3.75;;;3.30;;
52294;SDS011;38243;53.212;6.574;2023-02-13T06:05:57;6.03;;;3.60;;
52294;SDS011;38243;53.212;6.574;2023-02-13T06:08:23;4.17;;;3.40;;
52294;SDS011;38243;53.212;6.574;2023-02-13T06:10:49;4.60;;;3.50;;
52294;SDS011;38243;53.212;6.574;2023-02-13T06:13:16;2.85;;;2.50;;
52294;SDS011;38243;53.212;6.574;2023-02-13T06:15:42;4.47;;;3.20;;
52294;SDS011;38243;53.212;6.574;2023-02-13T06:18:09;3.53;;;2.92;;
52294;SDS011;38243;53.212;6.574;2023-02-13T06:20:35;4.45;;;2.72;;
52294;SDS011;38243;53.212;6.574;2023-02-13T06:23:01;2.50;;;2.30;;
52294;SDS011;38243;53.212;6.574;2023-02-13T06:25:26;3.50;;;2.85;;
52294;SDS011;38243;53.212;6.574;2023-02-13T06:27:52;6.23;;;2.90;;
52294;SDS011;38243;53.212;6.574;2023-02-13T06:30:18;3.55;;;2.60;;
52294;SDS011;38243;53.212;6.574;2023-02-13T06:32:44;3.25;;;2.95;;
52294;SDS011;38243;53.212;6.574;2023-02-13T06:35:11;5.30;;;3.00;;
52294;SDS011;38243;53.212;6.574;2023-02-13T06:37:37;2.90;;;2.57;;
52294;SDS011;38243;53.212;6.574;2023-02-13T06:40:04;3.40;;;3.07;;
52294;SDS011;38243;53.212;6.574;2023-02-13T06:42:31;3.33;;;2.70;;
52294;SDS011;38243;53.212;6.574;2023-02-13T06:44:57;2.92;;;2.50;;
52294;SDS011;38243;53.212;6.574;2023-02-13T06:47:23;2.95;;;2.35;;
52294;SDS011;38243;53.212;6.574;2023-02-13T06:49:48;5.03;;;2.20;;
52294;SDS011;38243;53.212;6.574;2023-02-13T06:52:14;3.90;;;2.70;;
52294;SDS011;38243;53.212;6.574;2023-02-13T06:54:40;3.40;;;2.70;;
52294;SDS011;38243;53.212;6.574;2023-02-13T06:57:05;5.45;;;2.78;;
52294;SDS011;38243;53.212;6.574;2023-02-13T06:59:31;6.07;;;2.60;;
52294;SDS011;38243;53.212;6.574;2023-02-13T07:01:57;4.95;;;3.38;;
52294;SDS011;38243;53.212;6.574;2023-02-13T07:04:22;7.37;;;3.90;;
52294;SDS011;38243;53.212;6.574;2023-02-13T07:06:48;8.32;;;4.00;;
52294;SDS011;38243;53.212;6.574;2023-02-13T07:09:14;4.90;;;3.95;;
52294;SDS011;38243;53.212;6.574;2023-02-13T07:11:40;4.60;;;4.20;;
52294;SDS011;38243;53.212;6.574;2023-02-13T07:14:06;7.88;;;4.07;;
52294;SDS011;38243;53.212;6.574;2023-02-13T07:16:32;8.15;;;4.70;;
52294;SDS011;38243;53.212;6.574;2023-02-13T07:18:58;5.70;;;4.20;;
52294;SDS011;38243;53.212;6.574;2023-02-13T07:21:24;6.18;;;4.70;;
52294;SDS011;38243;53.212;6.574;2023-02-13T07:23:50;5.73;;;4.57;;
52294;SDS011;38243;53.212;6.574;2023-02-13T07:26:16;6.80;;;4.65;;
52294;SDS011;38243;53.212;6.574;2023-02-13T07:28:42;6.45;;;4.63;;
52294;SDS011;38243;53.212;6.574;2023-02-13T07:31:08;6.20;;;4.77;;
52294;SDS011;38243;53.212;6.574;2023-02-13T07:33:34;5.55;;;4.93;;
52294;SDS011;38243;53.212;6.574;2023-02-13T07:36:00;6.43;;;5.00;;
52294;SDS011;38243;53.212;6.574;2023-02-13T07:38:28;5.85;;;4.82;;
52294;SDS011;38243;53.212;6.574;2023-02-13T07:40:57;5.68;;;4.80;;
52294;SDS011;38243;53.212;6.574;2023-02-13T07:43:26;8.30;;;5.05;;
52294;SDS011;38243;53.212;6.574;2023-02-13T07:45:53;6.47;;;4.60;;
52294;SDS011;38243;53.212;6.574;2023-02-13T07:48:22;6.68;;;4.97;;
52294;SDS011;38243;53.212;6.574;2023-02-13T07:50:51;7.43;;;5.50;;
52294;SDS011;38243;53.212;6.574;2023-02-13T07:53:17;6.32;;;5.15;;
52294;SDS011;38243;53.212;6.574;2023-02-13T07:55:43;5.80;;;4.40;;
52294;SDS011;38243;53.212;6.574;2023-02-13T07:58:08;6.30;;;5.10;;
52294;SDS011;38243;53.212;6.574;2023-02-13T08:00:34;6.75;;;5.35;;
52294;SDS011;38243;53.212;6.574;2023-02-13T08:03:00;6.07;;;4.67;;
52294;SDS011;38243;53.212;6.574;2023-02-13T08:05:26;7.75;;;4.50;;
52294;SDS011;38243;53.212;6.574;2023-02-13T08:07:52;4.70;;;3.78;;
52294;SDS011;38243;53.212;6.574;2023-02-13T08:10:18;6.23;;;4.37;;
52294;SDS011;38243;53.212;6.574;2023-02-13T08:13:03;4.38;;;3.55;;
52294;SDS011;38243;53.212;6.574;2023-02-13T08:15:31;4.90;;;3.65;;
52294;SDS011;38243;53.212;6.574;2023-02-13T08:17:57;4.38;;;3.15;;
52294;SDS011;38243;53.212;6.574;2023-02-13T08:20:23;5.28;;;3.60;;
52294;SDS011;38243;53.212;6.574;2023-02-13T08:22:49;4.73;;;3.53;;
52294;SDS011;38243;53.212;6.574;2023-02-13T08:25:15;5.00;;;3.60;;
52294;SDS011;38243;53.212;6.574;2023-02-13T08:27:41;5.60;;;3.28;;
52294;SDS011;38243;53.212;6.574;2023-02-13T08:30:08;3.95;;;3.00;;
52294;SDS011;38243;53.212;6.574;2023-02-13T08:32:34;4.60;;;3.00;;
52294;SDS011;38243;53.212;6.574;2023-02-13T08:35:00;5.75;;;3.60;;
52294;SDS011;38243;53.212;6.574;2023-02-13T08:37:26;4.40;;;3.20;;
52294;SDS011;38243;53.212;6.574;2023-02-13T08:39:51;5.20;;;3.50;;
52294;SDS011;38243;53.212;6.574;2023-02-13T08:42:17;4.93;;;3.90;;
52294;SDS011;38243;53.212;6.574;2023-02-13T08:44:43;7.50;;;3.53;;
52294;SDS011;38243;53.212;6.574;2023-02-13T08:47:09;5.93;;;3.40;;
52294;SDS011;38243;53.212;6.574;2023-02-13T08:49:34;5.33;;;3.00;;
52294;SDS011;38243;53.212;6.574;2023-02-13T08:52:00;5.22;;;3.00;;
52294;SDS011;38243;53.212;6.574;2023-02-13T08:54:27;4.85;;;2.83;;
52294;SDS011;38243;53.212;6.574;2023-02-13T08:56:53;5.67;;;3.17;;
52294;SDS011;38243;53.212;6.574;2023-02-13T08:59:19;4.45;;;3.55;;
52294;SDS011;38243;53.212;6.574;2023-02-13T09:01:45;5.43;;;3.33;;
52294;SDS011;38243;53.212;6.574;2023-02-13T09:04:11;4.30;;;2.85;;
52294;SDS011;38243;53.212;6.574;2023-02-13T09:06:40;6.38;;;3.08;;
52294;SDS011;38243;53.212;6.574;2023-02-13T09:09:06;4.60;;;2.85;;
52294;SDS011;38243;53.212;6.574;2023-02-13T09:11:32;4.20;;;3.28;;
52294;SDS011;38243;53.212;6.574;2023-02-13T09:13:58;3.70;;;2.60;;
52294;SDS011;38243;53.212;6.574;2023-02-13T09:16:23;4.28;;;3.20;;
52294;SDS011;38243;53.212;6.574;2023-02-13T09:18:49;5.57;;;3.20;;
52294;SDS011;38243;53.212;6.574;2023-02-13T09:21:16;3.35;;;2.80;;
52294;SDS011;38243;53.212;6.574;2023-02-13T09:23:43;4.30;;;2.97;;
52294;SDS011;38243;53.212;6.574;2023-02-13T09:26:09;3.87;;;3.00;;
52294;SDS011;38243;53.212;6.574;2023-02-13T09:28:37;3.90;;;2.65;;
52294;SDS011;38243;53.212;6.574;2023-02-13T09:31:07;3.92;;;2.95;;
52294;SDS011;38243;53.212;6.574;2023-02-13T09:33:34;3.92;;;2.70;;
52294;SDS011;38243;53.212;6.574;2023-02-13T09:36:07;3.88;;;3.42;;
52294;SDS011;38243;53.212;6.574;2023-02-13T09:38:34;4.72;;;3.42;;
52294;SDS011;38243;53.212;6.574;2023-02-13T09:41:22;5.45;;;4.00;;
52294;SDS011;38243;53.212;6.574;2023-02-13T09:43:50;5.70;;;3.88;;
52294;SDS011;38243;53.212;6.574;2023-02-13T09:46:24;5.05;;;3.83;;
52294;SDS011;38243;53.212;6.574;2023-02-13T09:49:11;5.28;;;3.30;;
52294;SDS011;38243;53.212;6.574;2023-02-13T09:51:41;3.00;;;2.70;;
52294;SDS011;38243;53.212;6.574;2023-02-13T09:54:10;5.82;;;4.25;;
52294;SDS011;38243;53.212;6.574;2023-02-13T09:56:43;3.75;;;3.30;;
52294;SDS011;38243;53.212;6.574;2023-02-13T09:59:20;5.47;;;4.10;;
52294;SDS011;38243;53.212;6.574;2023-02-13T10:19:02;4.25;;;3.85;;
52294;SDS011;38243;53.212;6.574;2023-02-13T10:21:53;6.60;;;4.30;;
52294;SDS011;38243;53.212;6.574;2023-02-13T10:24:26;4.63;;;4.00;;
52294;SDS011;38243;53.212;6.574;2023-02-13T10:26:54;3.80;;;3.40;;
52294;SDS011;38243;53.212;6.574;2023-02-13T10:29:38;3.95;;;3.58;;
52294;SDS011;38243;53.212;6.574;2023-02-13T10:32:30;3.30;;;2.92;;
52294;SDS011;38243;53.212;6.574;2023-02-13T10:35:35;4.05;;;3.35;;
52294;SDS011;38243;53.212;6.574;2023-02-13T10:38:03;5.68;;;3.75;;
52294;SDS011;38243;53.212;6.574;2023-02-13T10:43:19;4.68;;;4.18;;
52294;SDS011;38243;53.212;6.574;2023-02-13T10:48:39;8.93;;;4.00;;
52294;SDS011;38243;53.212;6.574;2023-02-13T10:54:21;5.35;;;3.35;;
52294;SDS011;38243;53.212;6.574;2023-02-13T10:59:48;5.80;;;4.32;;
52294;SDS011;38243;53.212;6.574;2023-02-13T11:02:23;4.32;;;3.85;;
52294;SDS011;38243;53.212;6.574;2023-02-13T11:05:00;4.67;;;4.13;;
52294;SDS011;38243;53.212;6.574;2023-02-13T11:07:35;4.97;;;3.80;;
52294;SDS011;38243;53.212;6.574;2023-02-13T11:10:04;4.93;;;3.97;;
52294;SDS011;38243;53.212;6.574;2023-02-13T11:12:37;4.50;;;4.00;;
52294;SDS011;38243;53.212;6.574;2023-02-13T11:15:04;5.83;;;4.50;;
52294;SDS011;38243;53.212;6.574;2023-02-13T11:17:36;5.15;;;4.15;;
52294;SDS011;38243;53.212;6.574;2023-02-13T11:20:06;6.57;;;4.40;;
52294;SDS011;38243;53.212;6.574;2023-02-13T11:22:49;5.75;;;4.10;;
52294;SDS011;38243;53.212;6.574;2023-02-13T11:25:25;6.20;;;4.53;;
52294;SDS011;38243;53.212;6.574;2023-02-13T11:28:16;6.30;;;5.13;;
52294;SDS011;38243;53.212;6.574;2023-02-13T11:30:42;5.20;;;4.68;;
52294;SDS011;38243;53.212;6.574;2023-02-13T11:36:02;6.20;;;5.00;;
52294;SDS011;38243;53.212;6.574;2023-02-13T11:38:30;6.03;;;5.43;;
52294;SDS011;38243;53.212;6.574;2023-02-13T11:41:09;7.17;;;5.47;;
52294;SDS011;38243;53.212;6.574;2023-02-13T11:43:47;5.53;;;4.93;;
52294;SDS011;38243;53.212;6.574;2023-02-13T11:46:21;6.18;;;5.47;;
52294;SDS011;38243;53.212;6.574;2023-02-13T11:48:59;6.35;;;5.32;;
52294;SDS011;38243;53.212;6.574;2023-02-13T11:51:36;5.97;;;5.13;;
52294;SDS011;38243;53.212;6.574;2023-02-13T11:56:49;6.15;;;5.03;;
52294;SDS011;38243;53.212;6.574;2023-02-13T11:59:17;6.65;;;4.95;;
52294;SDS011;38243;53.212;6.574;2023-02-13T12:01:46;7.10;;;4.90;;
52294;SDS011;38243;53.212;6.574;2023-02-13T12:04:15;5.80;;;5.20;;
52294;SDS011;38243;53.212;6.574;2023-02-13T12:07:01;6.07;;;4.93;;
52294;SDS011;38243;53.212;6.574;2023-02-13T12:09:39;7.45;;;5.13;;
52294;SDS011;38243;53.212;6.574;2023-02-13T12:12:06;6.68;;;5.28;;
52294;SDS011;38243;53.212;6.574;2023-02-13T12:14:37;8.75;;;5.57;;
52294;SDS011;38243;53.212;6.574;2023-02-13T12:17:07;7.57;;;5.45;;
52294;SDS011;38243;53.212;6.574;2023-02-13T12:19:41;7.93;;;5.40;;
52294;SDS011;38243;53.212;6.574;2023-02-13T12:30:29;6.07;;;4.50;;
52294;SDS011;38243;53.212;6.574;2023-02-13T12:33:16;6.15;;;4.32;;
52294;SDS011;38243;53.212;6.574;2023-02-13T12:38:49;6.47;;;4.32;;
52294;SDS011;38243;53.212;6.574;2023-02-13T12:41:44;6.82;;;4.43;;
52294;SDS011;38243;53.212;6.574;2023-02-13T12:47:20;6.18;;;4.60;;
52294;SDS011;38243;53.212;6.574;2023-02-13T13:00:57;4.03;;;3.13;;
52294;SDS011;38243;53.212;6.574;2023-02-13T13:09:12;4.82;;;3.78;;
52294;SDS011;38243;53.212;6.574;2023-02-13T13:14:50;4.88;;;3.90;;
52294;SDS011;38243;53.212;6.574;2023-02-13T13:17:37;3.50;;;2.80;;
52294;SDS011;38243;53.212;6.574;2023-02-13T13:22:43;4.03;;;3.38;;
52294;SDS011;38243;53.212;6.574;2023-02-13T13:27:47;3.30;;;2.90;;
52294;SDS011;38243;53.212;6.574;2023-02-13T13:33:34;4.28;;;3.70;;
52294;SDS011;38243;53.212;6.574;2023-02-13T13:35:34;4.85;;;3.25;;
52294;SDS011;38243;53.212;6.574;2023-02-13T13:40:40;4.30;;;3.90;;
52294;SDS011;38243;53.212;6.574;2023-02-13T13:48:35;4.85;;;3.90;;
52294;SDS011;38243;53.212;6.574;2023-02-13T13:51:18;4.78;;;3.72;;
52294;SDS011;38243;53.212;6.574;2023-02-13T13:54:31;5.30;;;4.40;;
52294;SDS011;38243;53.212;6.574;2023-02-13T14:07:53;5.05;;;4.05;;
52294;SDS011;38243;53.212;6.574;2023-02-13T14:12:48;6.97;;;4.10;;
52294;SDS011;38243;53.212;6.574;2023-02-13T14:20:42;4.60;;;4.10;;
52294;SDS011;38243;53.212;6.574;2023-02-13T14:28:42;5.22;;;3.97;;
52294;SDS011;38243;53.212;6.574;2023-02-13T14:31:29;5.23;;;3.90;;
52294;SDS011;38243;53.212;6.574;2023-02-13T14:36:30;5.63;;;3.80;;
52294;SDS011;38243;53.212;6.574;2023-02-13T14:38:59;6.03;;;4.25;;
52294;SDS011;38243;53.212;6.574;2023-02-13T14:47:01;5.57;;;4.20;;
52294;SDS011;38243;53.212;6.574;2023-02-13T14:49:31;5.38;;;4.68;;
52294;SDS011;38243;53.212;6.574;2023-02-13T14:52:06;5.43;;;4.78;;
52294;SDS011;38243;53.212;6.574;2023-02-13T14:54:50;4.30;;;3.67;;
52294;SDS011;38243;53.212;6.574;2023-02-13T14:57:26;4.97;;;4.10;;
52294;SDS011;38243;53.212;6.574;2023-02-13T15:00:00;5.28;;;4.18;;
52294;SDS011;38243;53.212;6.574;2023-02-13T15:02:40;4.88;;;4.10;;
52294;SDS011;38243;53.212;6.574;2023-02-13T15:05:15;5.60;;;4.40;;
52294;SDS011;38243;53.212;6.574;2023-02-13T15:07:49;5.57;;;4.10;;
52294;SDS011;38243;53.212;6.574;2023-02-13T15:13:13;4.30;;;3.80;;
52294;SDS011;38243;53.212;6.574;2023-02-13T15:15:50;5.10;;;3.78;;
52294;SDS011;38243;53.212;6.574;2023-02-13T15:18:27;6.40;;;4.47;;
52294;SDS011;38243;53.212;6.574;2023-02-13T15:20:56;5.60;;;4.07;;
52294;SDS011;38243;53.212;6.574;2023-02-13T15:23:25;5.07;;;4.10;;
52294;SDS011;38243;53.212;6.574;2023-02-13T15:25:57;3.33;;;3.03;;
52294;SDS011;38243;53.212;6.574;2023-02-13T15:28:25;3.90;;;3.35;;
52294;SDS011;38243;53.212;6.574;2023-02-13T15:30:53;3.75;;;3.17;;
52294;SDS011;38243;53.212;6.574;2023-02-13T15:33:24;3.83;;;3.20;;
52294;SDS011;38243;53.212;6.574;2023-02-13T15:35:59;5.18;;;3.67;;
52294;SDS011;38243;53.212;6.574;2023-02-13T15:38:30;4.47;;;3.28;;
52294;SDS011;38243;53.212;6.574;2023-02-13T15:41:01;3.55;;;3.03;;
52294;SDS011;38243;53.212;6.574;2023-02-13T15:43:37;5.20;;;3.35;;
52294;SDS011;38243;53.212;6.574;2023-02-13T15:46:49;5.57;;;3.97;;
52294;SDS011;38243;53.212;6.574;2023-02-13T15:48:58;5.00;;;2.90;;
52294;SDS011;38243;53.212;6.574;2023-02-13T15:51:29;4.93;;;3.75;;
52294;SDS011;38243;53.212;6.574;2023-02-13T15:53:56;4.82;;;3.38;;
52294;SDS011;38243;53.212;6.574;2023-02-13T15:56:23;3.65;;;3.15;;
52294;SDS011;38243;53.212;6.574;2023-02-13T15:58:50;5.07;;;3.60;;
52294;SDS011;38243;53.212;6.574;2023-02-13T16:01:17;3.22;;;2.92;;
52294;SDS011;38243;53.212;6.574;2023-02-13T16:03:47;5.03;;;4.07;;
52294;SDS011;38243;53.212;6.574;2023-02-13T16:06:17;3.88;;;3.45;;
52294;SDS011;38243;53.212;6.574;2023-02-13T16:08:58;3.40;;;2.80;;
52294;SDS011;38243;53.212;6.574;2023-02-13T16:11:25;4.80;;;3.97;;
52294;SDS011;38243;53.212;6.574;2023-02-13T16:16:42;4.40;;;3.90;;
52294;SDS011;38243;53.212;6.574;2023-02-13T16:22:27;4.60;;;3.80;;
52294;SDS011;38243;53.212;6.574;2023-02-13T16:25:08;3.20;;;2.90;;
52294;SDS011;38243;53.212;6.574;2023-02-13T16:27:57;4.57;;;3.60;;
52294;SDS011;38243;53.212;6.574;2023-02-13T16:32:50;3.00;;;2.70;;
52294;SDS011;38243;53.212;6.574;2023-02-13T16:35:29;2.85;;;2.65;;
52294;SDS011;38243;53.212;6.574;2023-02-13T16:37:58;3.72;;;2.90;;
52294;SDS011;38243;53.212;6.574;2023-02-13T16:51:40;4.40;;;3.13;;
52294;SDS011;38243;53.212;6.574;2023-02-13T17:02:27;3.20;;;2.73;;
52294;SDS011;38243;53.212;6.574;2023-02-13T17:07:35;2.87;;;2.60;;
52294;SDS011;38243;53.212;6.574;2023-02-13T17:10:22;3.40;;;2.93;;
52294;SDS011;38243;53.212;6.574;2023-02-13T17:12:57;3.90;;;3.30;;
52294;SDS011;38243;53.212;6.574;2023-02-13T17:15:46;5.22;;;4.00;;
52294;SDS011;38243;53.212;6.574;2023-02-13T17:18:12;5.50;;;4.10;;
52294;SDS011;38243;53.212;6.574;2023-02-13T17:20:42;7.13;;;5.50;;
52294;SDS011;38243;53.212;6.574;2023-02-13T17:23:29;7.95;;;6.20;;
52294;SDS011;38243;53.212;6.574;2023-02-13T17:25:54;6.90;;;6.20;;
52294;SDS011;38243;53.212;6.574;2023-02-13T17:28:21;8.10;;;6.50;;
52294;SDS011;38243;53.212;6.574;2023-02-13T17:30:49;6.47;;;5.63;;
52294;SDS011;38243;53.212;6.574;2023-02-13T17:33:20;7.70;;;5.72;;
52294;SDS011;38243;53.212;6.574;2023-02-13T17:35:49;7.82;;;6.03;;
52294;SDS011;38243;53.212;6.574;2023-02-13T17:38:15;6.72;;;5.90;;
52294;SDS011;38243;53.212;6.574;2023-02-13T17:40:41;6.57;;;5.32;;
52294;SDS011;38243;53.212;6.574;2023-02-13T17:43:08;7.88;;;5.80;;
52294;SDS011;38243;53.212;6.574;2023-02-13T17:45:38;7.85;;;5.80;;
52294;SDS011;38243;53.212;6.574;2023-02-13T17:48:05;8.82;;;6.07;;
52294;SDS011;38243;53.212;6.574;2023-02-13T17:50:31;7.10;;;6.10;;
52294;SDS011;38243;53.212;6.574;2023-02-13T17:52:59;5.80;;;5.20;;
52294;SDS011;38243;53.212;6.574;2023-02-13T17:55:28;5.97;;;5.27;;
52294;SDS011;38243;53.212;6.574;2023-02-13T17:57:55;5.90;;;5.30;;
52294;SDS011;38243;53.212;6.574;2023-02-13T18:00:22;8.52;;;5.80;;
52294;SDS011;38243;53.212;6.574;2023-02-13T18:02:53;7.85;;;5.60;;
52294;SDS011;38243;53.212;6.574;2023-02-13T18:05:20;6.07;;;5.20;;
52294;SDS011;38243;53.212;6.574;2023-02-13T18:07:46;6.05;;;5.40;;
52294;SDS011;38243;53.212;6.574;2023-02-13T18:10:13;7.30;;;5.38;;
52294;SDS011;38243;53.212;6.574;2023-02-13T18:12:44;5.93;;;5.30;;
52294;SDS011;38243;53.212;6.574;2023-02-13T18:15:11;7.55;;;6.05;;
52294;SDS011;38243;53.212;6.574;2023-02-13T18:17:37;6.43;;;5.67;;